Santa Fe, NM

05:56 MDT le 28 septembre 2016 (GMT -0600)
Casa Solana | | Change Station

Alt. 6930 ft 35.69 °N, 105.96 °W | Updated 1 minute ago

Clear
Ciel dégagé
46.9 ° F
Paraît 47 ° F
N
0.0
Vent Variable Vent de SSO
Gusts 0.0 mph

Aujourd'hui
Haut(e) -- | Bas -- ° F
--% Risque de précip.
Hier
Haut(e) -- | Bas -- ° F
Precip. -- pouce
Pression 30.07 pouce
Visibilité 10.0 Miles terrestres
Nuages Ciel dégagé
Refroidissement éolien 47 ° F
Point de rosée 40 ° F
Humidité 76%
Précipitations 0.00 pouce
Profondeur de la couche neigeuse Non disponible.
6:56 AM 6:51 PM
Lune descendante, 6% visible
METAR KSAF 281153Z AUTO 01010KT 10SM CLR 10/M01 A3031 RMK AO2 SLP182 T01001011 10111 20072 53006
Pression 30.07 pouce
Visibilité 10.0 Miles terrestres
Nuages Ciel dégagé
Refroidissement éolien 47 ° F
Point de rosée 40 ° F
Humidité 76%
Précipitations 0.00 pouce
Profondeur de la couche neigeuse Non disponible.
6:56 AM 6:51 PM
Lune descendante, 6% visible
METAR KSAF 281153Z AUTO 01010KT 10SM CLR 10/M01 A3031 RMK AO2 SLP182 T01001011 10111 20072 53006

10-Day Weather Forecast

Almanac

Astronomie

Sep. 28, 2016 Lever Coucher
Temps réel
Crépuscule civil
Crépuscule nautique
Crépuscule astronomique
Lune
Durée de lumière visible
Longueur du jour
Tomorrow will be .
, % of the Moon is Illuminated

Extrêmes aujourd'hui

State Highs State Lows

Community

WunderPhotos

Upload Photos

1,942,232 Photos téléchargées !

WunderBlog® & News

Nearby

Qualité de l'air

  Qualité de l'air Indice de la qualité de l'air Polluant
Not available.

Épaisseur de neige

Station Depth Altitude

Activité sismique

Ville Distance Mag. Time & Date
Minimum magnitude displayed is 2.5.

Températures des eaux côtières

Lieu Température

Stations

Stations météo à proximité

Emplacement de la station Température Refroidissement éolien Point de rosée Humidité Vent Precip. Alt. Mise à jour Type
                   

Watches & Warnings

There are currently no watches in effect.